Time;durP1;ratioP1;P1;durP2;ratioP2;P2;SDS_P1;SDS_P2;PMS_P1;PMS_P2;Temp;Humidity;BMP_temperature;BMP_pressure;BME280_temperature;BME280_humidity;BME280_pressure;Samples;Min_cycle;Max_cycle;Signal;HPM_P1;HPM_P2
2022/05/31 00:01:52;;;;;;;;;;;;;;;16.20;40.25;100624.19;5059867;28;944;-62
2022/05/31 00:04:18;;;;;;;;;;;;;;;16.20;40.46;100629.69;5058904;28;889;-62
2022/05/31 00:06:44;;;;;;;;;;;;;;;16.18;40.41;100635.44;5058937;28;1991;-61
2022/05/31 00:09:09;;;;;;;;;;;;;;;16.22;40.29;100639.28;5060751;28;773;-61
2022/05/31 00:11:36;;;;;;;;;;;;;;;16.20;40.26;100635.16;5058915;28;921;-61
2022/05/31 00:14:02;;;;;;;;;;;;;;;16.16;40.18;100634.91;5062541;28;1096;-60
2022/05/31 00:16:28;;;;;;;;;;;;;;;16.19;40.14;100633.53;5069658;28;850;-61
2022/05/31 00:18:53;;;;;;;;;;;;;;;16.17;40.52;100641.19;5077908;28;830;-61
2022/05/31 00:21:19;;;;;;;;;;;;;;;16.15;40.32;100643.41;5077773;28;842;-61
2022/05/31 00:23:44;;;;;;;;;;;;;;;16.12;40.59;100641.19;5077996;28;913;-61
2022/05/31 00:26:09;;;;;;;;;;;;;;;16.18;40.28;100651.09;5076945;28;1971;-61
2022/05/31 00:28:35;;;;;;;;;;;;;;;16.20;40.33;100644.22;5058210;28;826;-61
2022/05/31 00:31:00;;;;;;;;;;;;;;;16.15;40.11;100646.97;5058158;28;1075;-61
2022/05/31 00:33:26;;;;;;;;;;;;;;;16.11;40.40;100640.38;5059546;28;1445;-61
2022/05/31 00:35:53;;;;;;;;;;;;;;;16.07;40.61;100639.28;5047365;28;762;-61
2022/05/31 00:38:19;;;;;;;;;;;;;;;16.12;40.41;100642.03;5041047;28;894;-61
2022/05/31 00:40:44;;;;;;;;;;;;;;;16.14;40.32;100647.25;5042191;28;1525;-61
2022/05/31 00:43:11;;;;;;;;;;;;;;;16.11;40.10;100647.78;5065944;28;807;-61
2022/05/31 00:45:43;;;;;;;;;;;;;;;16.13;40.36;100645.59;5058069;28;1913;-61
2022/05/31 00:48:10;;;;;;;;;;;;;;;16.14;40.26;100647.25;5064795;28;892;-61
2022/05/31 00:50:37;;;;;;;;;;;;;;;16.18;40.34;100651.09;5040156;28;822;-61
2022/05/31 00:53:05;;;;;;;;;;;;;;;16.08;40.58;100652.72;5064373;28;932;-61
2022/05/31 00:55:33;;;;;;;;;;;;;;;16.09;40.20;100656.31;5057820;28;754;-61
2022/05/31 00:58:18;;;;;;;;;;;;;;;16.12;40.42;100657.66;5039975;28;804;-61
2022/05/31 01:00:44;;;;;;;;;;;;;;;16.06;40.19;100663.16;5067858;28;821;-61
2022/05/31 01:03:11;;;;;;;;;;;;;;;16.12;40.46;100661.25;5077099;28;782;-61
2022/05/31 01:05:37;;;;;;;;;;;;;;;16.06;40.41;100659.56;5051403;28;1934;-61
2022/05/31 01:08:03;;;;;;;;;;;;;;;16.14;40.37;100655.47;5057927;28;837;-60
2022/05/31 01:10:40;;;;;;;;;;;;;;;16.11;40.31;100658.78;5039817;28;1123;-61
2022/05/31 01:13:25;;;;;;;;;;;;;;;16.07;40.17;100662.06;5025032;28;1310;-61
2022/05/31 01:16:11;;;;;;;;;;;;;;;16.08;40.28;100660.94;5067534;28;1214;-61
2022/05/31 01:18:54;;;;;;;;;;;;;;;16.08;40.22;100655.47;5063527;28;817;-61
2022/05/31 01:21:46;;;;;;;;;;;;;;;16.07;40.17;100659.31;5053700;28;1436;-62
2022/05/31 01:24:25;;;;;;;;;;;;;;;16.03;40.38;100666.44;5039962;28;1205;-61
2022/05/31 01:26:53;;;;;;;;;;;;;;;16.11;40.12;100667.00;5058699;28;1905;-60
2022/05/31 01:29:19;;;;;;;;;;;;;;;16.10;40.15;100668.09;5076470;28;850;-61
2022/05/31 01:31:46;;;;;;;;;;;;;;;16.07;40.34;100663.97;5068687;28;918;-61
2022/05/31 01:34:14;;;;;;;;;;;;;;;16.05;40.18;100660.69;5052735;28;912;-61
2022/05/31 01:36:47;;;;;;;;;;;;;;;16.04;40.35;100665.31;5052531;28;801;-61
2022/05/31 01:39:18;;;;;;;;;;;;;;;16.07;40.38;100674.94;5052381;28;1164;-60
2022/05/31 01:41:50;;;;;;;;;;;;;;;16.13;39.96;100673.03;5057062;28;947;-61
2022/05/31 01:44:15;;;;;;;;;;;;;;;16.02;40.39;100667.53;5063702;28;782;-61
2022/05/31 01:46:41;;;;;;;;;;;;;;;16.07;40.26;100667.56;5044052;28;1985;-61
2022/05/31 01:49:08;;;;;;;;;;;;;;;16.05;40.27;100663.44;5039593;28;840;-60
2022/05/31 01:51:34;;;;;;;;;;;;;;;16.04;39.97;100664.50;5057060;28;786;-60
2022/05/31 01:54:00;;;;;;;;;;;;;;;15.94;40.40;100664.50;5056843;28;861;-60
2022/05/31 01:56:28;;;;;;;;;;;;;;;15.99;40.41;100665.34;5041739;28;1356;-61
2022/05/31 01:58:53;;;;;;;;;;;;;;;16.00;40.31;100668.91;5038810;28;1128;-60
2022/05/31 02:01:19;;;;;;;;;;;;;;;15.98;40.06;100671.09;5045217;28;1108;-60
2022/05/31 02:03:44;;;;;;;;;;;;;;;15.96;40.32;100667.78;5056664;28;953;-61
2022/05/31 02:06:23;;;;;;;;;;;;;;;16.01;40.16;100673.28;5056205;28;1897;-60
2022/05/31 02:08:49;;;;;;;;;;;;;;;15.98;40.42;100671.91;5051677;28;1318;-60
2022/05/31 02:11:15;;;;;;;;;;;;;;;15.96;40.25;100679.56;5039009;28;1064;-61
2022/05/31 02:13:41;;;;;;;;;;;;;;;16.03;40.14;100682.91;5038772;28;989;-60
2022/05/31 02:16:09;;;;;;;;;;;;;;;16.01;40.02;100687.00;5044855;28;1241;-60
2022/05/31 02:21:19;;;;;;;;;;;;;;;15.98;40.25;100695.78;5059016;28;769;-61
2022/05/31 02:23:48;;;;;;;;;;;;;;;15.96;39.90;100685.06;5056738;28;801;-61
2022/05/31 02:26:13;;;;;;;;;;;;;;;15.99;40.14;100694.66;5038341;28;1965;-61
2022/05/31 02:28:39;;;;;;;;;;;;;;;15.96;40.10;100690.53;5038818;28;1107;-61
2022/05/31 02:31:04;;;;;;;;;;;;;;;16.03;40.25;100696.63;5039770;28;1459;-61
2022/05/31 02:33:29;;;;;;;;;;;;;;;16.01;40.55;100696.06;5061649;28;784;-61
2022/05/31 02:35:55;;;;;;;;;;;;;;;16.11;40.60;100686.19;5061154;28;805;-61
2022/05/31 02:38:20;;;;;;;;;;;;;;;16.12;40.80;100699.63;5038247;28;1296;-61
2022/05/31 02:40:46;;;;;;;;;;;;;;;16.11;40.98;100694.44;5037975;28;836;-61
2022/05/31 02:43:12;;;;;;;;;;;;;;;16.18;40.77;100705.94;5038714;28;1135;-61
2022/05/31 02:45:37;;;;;;;;;;;;;;;16.17;41.02;100712.53;5056468;28;1946;-60
2022/05/31 02:48:03;;;;;;;;;;;;;;;16.20;41.05;100709.25;5055193;28;1218;-60
2022/05/31 02:50:29;;;;;;;;;;;;;;;16.18;41.13;100701.28;5038599;28;1313;-62
2022/05/31 02:52:55;;;;;;;;;;;;;;;16.20;40.97;100709.25;5051420;28;1110;-61
2022/05/31 02:55:20;;;;;;;;;;;;;;;16.17;40.95;100702.41;5056485;28;817;-61
2022/05/31 02:58:04;;;;;;;;;;;;;;;16.21;41.23;100702.66;5070824;28;618;-61
2022/05/31 03:00:48;;;;;;;;;;;;;;;16.27;40.82;100706.22;5065646;28;732;-61
2022/05/31 03:03:32;;;;;;;;;;;;;;;16.21;41.13;100703.47;5056129;28;770;-61
2022/05/31 03:06:15;;;;;;;;;;;;;;;16.26;41.22;100702.69;5070730;28;1909;-61
2022/05/31 03:08:47;;;;;;;;;;;;;;;16.29;41.08;100712.28;5057281;28;1278;-62
2022/05/31 03:11:16;;;;;;;;;;;;;;;16.28;41.14;100713.38;5057584;28;1166;-61
2022/05/31 03:13:42;;;;;;;;;;;;;;;16.32;40.89;100720.78;5060217;28;883;-61
2022/05/31 03:16:08;;;;;;;;;;;;;;;16.37;40.80;100720.78;5061558;28;1134;-61
2022/05/31 03:18:34;;;;;;;;;;;;;;;16.29;41.28;100715.84;5041915;28;847;-62
2022/05/31 03:21:04;;;;;;;;;;;;;;;16.35;41.03;100719.41;5041454;28;878;-62
2022/05/31 03:23:30;;;;;;;;;;;;;;;16.41;41.04;100724.63;5059563;28;858;-61
2022/05/31 03:25:56;;;;;;;;;;;;;;;16.36;41.22;100718.31;5046584;28;1997;-61
2022/05/31 03:28:21;;;;;;;;;;;;;;;16.36;41.31;100721.06;5059498;28;897;-61
2022/05/31 03:30:47;;;;;;;;;;;;;;;16.45;40.88;100718.59;5045143;28;1199;-61
2022/05/31 03:33:12;;;;;;;;;;;;;;;16.40;40.80;100722.16;5067442;28;1250;-65
2022/05/31 03:35:38;;;;;;;;;;;;;;;16.42;41.29;100720.81;5042794;28;1453;-62
2022/05/31 03:38:11;;;;;;;;;;;;;;;16.41;41.09;100723.78;5052500;28;1211;-63
2022/05/31 03:40:56;;;;;;;;;;;;;;;16.44;41.19;100728.75;5053169;28;1429;-64
2022/05/31 03:43:26;;;;;;;;;;;;;;;16.42;41.24;100726.28;5053307;28;1189;-64
2022/05/31 03:46:21;;;;;;;;;;;;;;;16.49;40.96;100736.16;5005243;28;1918;-62
2022/05/31 03:49:05;;;;;;;;;;;;;;;16.42;41.12;100731.78;5070909;28;1036;-63
2022/05/31 03:52:03;;;;;;;;;;;;;;;16.46;41.17;100737.53;5061953;28;1341;-63
2022/05/31 03:54:38;;;;;;;;;;;;;;;16.48;41.12;100740.84;5048013;28;1618;-63
2022/05/31 03:57:04;;;;;;;;;;;;;;;16.55;41.17;100741.38;5059684;28;881;-63
2022/05/31 03:59:33;;;;;;;;;;;;;;;16.51;41.16;100737.53;5044652;28;1437;-64
2022/05/31 04:01:59;;;;;;;;;;;;;;;16.47;41.31;100738.38;5051664;28;1115;-64
2022/05/31 04:04:24;;;;;;;;;;;;;;;16.50;41.25;100743.31;5055959;28;1344;-64
2022/05/31 04:06:50;;;;;;;;;;;;;;;16.56;41.03;100736.72;5059515;28;1900;-63
2022/05/31 04:09:15;;;;;;;;;;;;;;;16.51;41.17;100739.44;5059295;28;1079;-63
2022/05/31 04:11:41;;;;;;;;;;;;;;;16.53;41.20;100751.00;5047420;28;1163;-63
2022/05/31 04:14:14;;;;;;;;;;;;;;;16.54;41.07;100744.41;5046653;28;1133;-63
2022/05/31 04:16:50;;;;;;;;;;;;;;;16.58;41.10;100743.56;5068229;28;991;-63
2022/05/31 04:19:17;;;;;;;;;;;;;;;16.57;40.96;100744.66;5040656;28;1048;-63
2022/05/31 04:21:42;;;;;;;;;;;;;;;16.57;41.18;100739.19;5040262;28;1214;-64
2022/05/31 04:24:08;;;;;;;;;;;;;;;16.55;41.11;100743.28;5048894;28;1242;-64
2022/05/31 04:26:44;;;;;;;;;;;;;;;16.61;41.02;100736.72;5077346;28;1894;-63
2022/05/31 04:29:44;;;;;;;;;;;;;;;16.58;41.12;100737.28;4995974;28;1107;-62
2022/05/31 04:32:10;;;;;;;;;;;;;;;16.61;41.05;100744.97;5058879;28;1160;-64
2022/05/31 04:35:11;;;;;;;;;;;;;;;16.60;41.36;100737.81;5045311;28;1202;-64
2022/05/31 04:37:37;;;;;;;;;;;;;;;16.61;41.37;100744.97;5058568;28;759;-62
2022/05/31 04:40:17;;;;;;;;;;;;;;;16.61;41.47;100753.19;5039737;28;1250;-63
2022/05/31 04:42:58;;;;;;;;;;;;;;;16.68;41.36;100747.44;5052946;28;1482;-59
2022/05/31 04:45:52;;;;;;;;;;;;;;;16.64;41.51;100744.41;5005154;28;1902;-59
2022/05/31 04:48:29;;;;;;;;;;;;;;;16.67;41.21;100746.59;5058651;28;1378;-62
2022/05/31 04:50:55;;;;;;;;;;;;;;;16.69;41.29;100749.91;5058476;28;1234;-62
2022/05/31 04:53:23;;;;;;;;;;;;;;;16.64;41.61;100746.34;5058670;28;1217;-65
2022/05/31 04:56:19;;;;;;;;;;;;;;;16.67;41.40;100760.31;5052261;28;1166;-63
2022/05/31 04:58:46;;;;;;;;;;;;;;;16.71;41.47;100764.16;5058572;28;1179;-63
2022/05/31 05:01:11;;;;;;;;;;;;;;;16.71;41.37;100749.63;5048602;28;1189;-64
2022/05/31 05:03:41;;;;;;;;;;;;;;;16.73;41.58;100758.41;5041722;28;1162;-63
2022/05/31 05:06:08;;;;;;;;;;;;;;;16.74;41.37;100751.81;5065413;28;1909;-63
2022/05/31 05:08:33;;;;;;;;;;;;;;;16.79;41.60;100762.81;5043200;28;1241;-62
2022/05/31 05:11:00;;;;;;;;;;;;;;;16.77;41.53;100760.34;5052686;28;1150;-62
2022/05/31 05:13:34;;;;;;;;;;;;;;;16.76;41.65;100764.16;5058987;28;993;-62
2022/05/31 05:16:02;;;;;;;;;;;;;;;16.80;41.64;100766.34;5069505;28;1006;-62
2022/05/31 05:18:35;;;;;;;;;;;;;;;16.79;41.77;100765.53;5042572;28;1204;-62
2022/05/31 05:21:01;;;;;;;;;;;;;;;16.83;41.60;100760.31;5047058;28;1297;-62
2022/05/31 05:23:27;;;;;;;;;;;;;;;16.83;41.74;100765.81;5057815;28;1386;-62
2022/05/31 05:25:54;;;;;;;;;;;;;;;16.76;42.19;100777.91;5045613;28;1914;-62
2022/05/31 05:31:35;;;;;;;;;;;;;;;16.88;41.91;100774.06;5049665;28;1170;-62
2022/05/31 05:34:19;;;;;;;;;;;;;;;16.83;42.33;100774.88;5064639;28;1187;-62
2022/05/31 05:36:58;;;;;;;;;;;;;;;16.93;41.82;100772.16;5045323;28;1423;-62
2022/05/31 05:39:24;;;;;;;;;;;;;;;16.88;42.14;100776.78;5038304;28;1337;-60
2022/05/31 05:42:15;;;;;;;;;;;;;;;16.98;43.13;100776.81;5071730;28;965;-61
2022/05/31 05:44:43;;;;;;;;;;;;;;;17.01;43.42;100787.28;5072570;28;936;-62
2022/05/31 05:47:14;;;;;;;;;;;;;;;16.97;43.02;100780.69;5038980;28;1980;-60
2022/05/31 05:49:41;;;;;;;;;;;;;;;17.01;42.49;100776.28;5038974;28;1122;-61
2022/05/31 05:52:26;;;;;;;;;;;;;;;16.93;42.23;100785.06;5068490;28;1145;-64
2022/05/31 05:55:11;;;;;;;;;;;;;;;16.91;41.71;100784.50;5075654;28;612;-62
2022/05/31 05:58:15;;;;;;;;;;;;;;;16.81;41.73;100787.25;4975015;28;1127;-61
2022/05/31 06:01:20;;;;;;;;;;;;;;;16.72;41.39;100771.31;4953425;28;1122;-61
2022/05/31 06:04:15;;;;;;;;;;;;;;;16.79;41.17;100778.44;5034168;28;1655;-61
2022/05/31 06:06:41;;;;;;;;;;;;;;;16.74;41.29;100773.78;5060521;28;1959;-62
2022/05/31 06:09:12;;;;;;;;;;;;;;;16.79;41.47;100778.44;5061606;28;1301;-62
2022/05/31 06:11:41;;;;;;;;;;;;;;;16.71;41.25;100779.81;5057204;28;837;-62
2022/05/31 06:14:10;;;;;;;;;;;;;;;16.80;41.32;100775.41;5038294;28;1159;-63
2022/05/31 06:16:36;;;;;;;;;;;;;;;16.71;41.62;100766.91;5041835;28;1223;-63
2022/05/31 06:19:04;;;;;;;;;;;;;;;16.70;41.48;100775.41;5054150;28;1316;-63
2022/05/31 06:21:30;;;;;;;;;;;;;;;16.70;41.39;100765.25;5021042;28;1096;-61
2022/05/31 06:24:04;;;;;;;;;;;;;;;16.79;41.35;100775.69;5045424;28;1210;-62
2022/05/31 06:26:30;;;;;;;;;;;;;;;16.74;41.49;100776.53;5056306;28;1973;-62
2022/05/31 06:28:57;;;;;;;;;;;;;;;16.67;41.34;100773.22;5056907;28;1311;-62
2022/05/31 06:31:22;;;;;;;;;;;;;;;16.80;41.32;100771.84;5053739;28;2055;-62
2022/05/31 06:33:48;;;;;;;;;;;;;;;16.69;41.27;100768.28;5049887;28;1290;-61
2022/05/31 06:36:18;;;;;;;;;;;;;;;16.68;41.31;100767.47;5069407;28;1343;-62
2022/05/31 06:38:45;;;;;;;;;;;;;;;16.69;41.34;100769.13;5038171;28;1296;-61
2022/05/31 06:41:10;;;;;;;;;;;;;;;16.70;41.10;100773.50;5054417;28;1158;-59
2022/05/31 06:43:57;;;;;;;;;;;;;;;16.75;41.35;100773.50;5036174;28;1223;-61
2022/05/31 06:46:41;;;;;;;;;;;;;;;16.67;41.26;100765.81;5059820;28;1918;-60
2022/05/31 06:49:30;;;;;;;;;;;;;;;16.73;41.12;100764.72;5027077;28;1148;-61
2022/05/31 06:58:25;;;;;;;;;;;;;;;16.70;41.27;100758.94;5060911;28;1119;-62
2022/05/31 07:00:53;;;;;;;;;;;;;;;16.69;41.17;100749.06;5040345;28;1190;-62
2022/05/31 07:03:19;;;;;;;;;;;;;;;16.68;41.21;100758.41;5059699;28;996;-63
2022/05/31 07:05:46;;;;;;;;;;;;;;;16.56;40.90;100747.69;5041675;28;1906;-62
2022/05/31 07:08:15;;;;;;;;;;;;;;;16.59;40.82;100763.59;5061579;28;1248;-61
2022/05/31 07:10:53;;;;;;;;;;;;;;;16.61;40.73;100755.94;5059847;28;749;-59
2022/05/31 07:13:37;;;;;;;;;;;;;;;16.57;40.71;100761.13;5062772;28;793;-61
2022/05/31 07:16:38;;;;;;;;;;;;;;;16.53;40.68;100751.81;5033519;28;1265;-61
2022/05/31 07:19:22;;;;;;;;;;;;;;;16.53;40.92;100761.97;5067459;28;1197;-61
2022/05/31 07:21:48;;;;;;;;;;;;;;;16.50;40.84;100768.00;5052267;28;1249;-62
2022/05/31 07:24:13;;;;;;;;;;;;;;;16.41;41.12;100754.81;5041339;28;1113;-64
2022/05/31 07:26:58;;;;;;;;;;;;;;;16.51;41.24;100765.00;5063964;28;1906;-61
2022/05/31 07:29:24;;;;;;;;;;;;;;;16.51;40.96;100780.63;5058248;28;1383;-60
2022/05/31 07:31:50;;;;;;;;;;;;;;;16.52;41.56;100769.38;5048338;28;1437;-59
2022/05/31 07:34:15;;;;;;;;;;;;;;;16.63;41.92;100758.41;5041278;28;1252;-59
2022/05/31 07:36:42;;;;;;;;;;;;;;;16.57;41.69;100760.31;5041453;28;1408;-61
2022/05/31 07:39:13;;;;;;;;;;;;;;;16.50;41.59;100760.59;5044904;28;1227;-60
2022/05/31 07:41:40;;;;;;;;;;;;;;;16.55;41.15;100762.50;5072149;28;873;-59
2022/05/31 07:44:05;;;;;;;;;;;;;;;16.55;40.98;100766.09;5057015;28;1477;-62
2022/05/31 07:46:31;;;;;;;;;;;;;;;16.56;40.90;100753.19;5053609;28;1905;-60
2022/05/31 07:48:57;;;;;;;;;;;;;;;16.49;40.77;100772.66;5059233;28;806;-61
2022/05/31 07:51:41;;;;;;;;;;;;;;;16.51;41.06;100753.16;5071636;28;726;-60
2022/05/31 07:54:25;;;;;;;;;;;;;;;16.52;41.24;100758.41;5046602;28;721;-59
2022/05/31 07:58:30;;;;;;;;;;;;;;;16.47;41.13;100743.88;5022452;28;1130;-60
2022/05/31 08:00:15;;;;;;;;;;;;;;;16.47;40.98;100744.66;5073031;28;1356;-60
2022/05/31 08:02:46;;;;;;;;;;;;;;;16.55;40.86;100746.88;5069521;28;1283;-61
2022/05/31 08:05:12;;;;;;;;;;;;;;;16.49;40.88;100752.63;5068886;28;1914;-60
2022/05/31 08:07:39;;;;;;;;;;;;;;;16.50;41.04;100757.03;5070256;28;1229;-60
2022/05/31 08:10:05;;;;;;;;;;;;;;;16.50;40.84;100759.78;5063617;28;1234;-59
2022/05/31 08:12:30;;;;;;;;;;;;;;;16.51;40.76;100756.75;5068575;28;1028;-59
2022/05/31 08:14:56;;;;;;;;;;;;;;;16.52;40.72;100749.34;5071794;28;1262;-58
2022/05/31 08:17:21;;;;;;;;;;;;;;;16.48;40.73;100749.06;5070611;28;1179;-59
2022/05/31 08:19:47;;;;;;;;;;;;;;;16.54;40.66;100760.88;5074658;28;1434;-59
2022/05/31 08:22:12;;;;;;;;;;;;;;;16.49;40.97;100755.38;5066947;28;1391;-59
2022/05/31 08:24:37;;;;;;;;;;;;;;;16.47;41.30;100761.13;5058532;28;766;-59
2022/05/31 08:27:03;;;;;;;;;;;;;;;16.56;40.91;100748.53;5071111;28;1971;-59
2022/05/31 08:29:29;;;;;;;;;;;;;;;16.53;41.29;100754.53;5070936;28;1411;-60
2022/05/31 08:31:55;;;;;;;;;;;;;;;16.52;41.31;100749.34;5065912;28;847;-58
2022/05/31 08:34:20;;;;;;;;;;;;;;;16.51;41.18;100750.41;5057956;28;879;-58
2022/05/31 08:36:45;;;;;;;;;;;;;;;16.46;41.29;100740.28;5057664;28;892;-61
2022/05/31 08:39:11;;;;;;;;;;;;;;;16.49;41.26;100744.41;5058340;28;862;-60
2022/05/31 08:41:39;;;;;;;;;;;;;;;16.51;40.97;100744.94;5057979;28;817;-60
2022/05/31 08:44:11;;;;;;;;;;;;;;;16.52;41.14;100733.72;5046499;28;810;-61
2022/05/31 08:46:39;;;;;;;;;;;;;;;16.57;40.77;100739.19;5065460;28;1906;-60
2022/05/31 08:49:05;;;;;;;;;;;;;;;16.48;41.04;100737.25;5040260;28;819;-60
2022/05/31 08:57:04;;;;;;;;;;;;;;;16.52;40.80;100741.09;5041546;28;1265;-59
2022/05/31 08:59:47;;;;;;;;;;;;;;;16.58;40.96;100734.53;5032246;28;1139;-60
2022/05/31 09:02:17;;;;;;;;;;;;;;;16.50;40.84;100729.59;5072735;28;1092;-60
2022/05/31 09:04:43;;;;;;;;;;;;;;;16.56;40.98;100737.56;5073827;28;1422;-62
2022/05/31 09:07:11;;;;;;;;;;;;;;;16.58;41.04;100734.53;5072396;28;1906;-60
2022/05/31 09:09:43;;;;;;;;;;;;;;;16.54;40.87;100733.44;5051634;28;1478;-61
2022/05/31 09:12:09;;;;;;;;;;;;;;;16.57;40.92;100738.38;5057594;28;1354;-61
2022/05/31 09:15:01;;;;;;;;;;;;;;;16.56;40.67;100737.56;5075379;28;1449;-59
2022/05/31 09:17:45;;;;;;;;;;;;;;;16.62;40.55;100730.13;5065145;28;1254;-62
2022/05/31 09:20:13;;;;;;;;;;;;;;;16.53;40.98;100740.00;5071606;28;1344;-63
2022/05/31 09:22:41;;;;;;;;;;;;;;;16.52;40.86;100741.09;5065836;28;1411;-62
2022/05/31 09:25:06;;;;;;;;;;;;;;;16.58;40.98;100727.09;5045741;28;1917;-61
2022/05/31 09:27:39;;;;;;;;;;;;;;;16.67;40.75;100738.34;5072146;28;1422;-60
2022/05/31 09:30:08;;;;;;;;;;;;;;;16.64;40.67;100738.09;5047117;28;1379;-60
2022/05/31 09:32:43;;;;;;;;;;;;;;;16.62;40.89;100732.03;5045585;28;1391;-61
2022/05/31 09:35:41;;;;;;;;;;;;;;;16.64;40.71;100738.91;5065785;28;1367;-60
2022/05/31 09:38:19;;;;;;;;;;;;;;;16.54;40.72;100716.97;5023302;28;1452;-60
2022/05/31 09:40:49;;;;;;;;;;;;;;;16.63;40.65;100729.03;5070948;28;1230;-61
2022/05/31 09:43:40;;;;;;;;;;;;;;;16.55;40.85;100721.31;5064321;28;1159;-60
2022/05/31 09:46:16;;;;;;;;;;;;;;;16.61;40.59;100723.00;5067902;28;1902;-59
2022/05/31 09:48:46;;;;;;;;;;;;;;;16.56;40.93;100731.22;5049846;28;1120;-59
2022/05/31 09:51:23;;;;;;;;;;;;;;;16.52;40.88;100724.63;5066396;28;1071;-60
2022/05/31 09:57:13;;;;;;;;;;;;;;;16.53;40.87;100723.53;5051617;28;1367;-59
2022/05/31 10:00:15;;;;;;;;;;;;;;;16.54;41.12;100722.44;5055541;28;1275;-57
2022/05/31 10:02:58;;;;;;;;;;;;;;;16.58;40.88;100718.06;5056502;28;675;-60
2022/05/31 10:05:24;;;;;;;;;;;;;;;16.57;40.86;100716.41;5070668;28;1972;-61
2022/05/31 10:07:49;;;;;;;;;;;;;;;16.58;40.89;100713.38;5075109;28;1128;-61
2022/05/31 10:10:34;;;;;;;;;;;;;;;16.62;41.58;100716.41;5075733;28;1552;-60
2022/05/31 10:13:04;;;;;;;;;;;;;;;16.73;41.50;100715.31;5072632;28;1382;-56
2022/05/31 10:15:44;;;;;;;;;;;;;;;16.62;41.30;100719.16;5049114;28;1509;-57
2022/05/31 10:18:11;;;;;;;;;;;;;;;16.69;41.18;100714.22;5074340;28;1162;-57
2022/05/31 10:20:36;;;;;;;;;;;;;;;16.67;41.02;100708.16;5057623;28;1545;-59
2022/05/31 10:23:13;;;;;;;;;;;;;;;16.65;40.93;100718.59;5056440;28;1216;-60
2022/05/31 10:26:10;;;;;;;;;;;;;;;16.62;40.83;100713.66;5017275;28;1902;-59
2022/05/31 10:28:56;;;;;;;;;;;;;;;16.69;40.92;100725.19;5056471;28;1587;-58
2022/05/31 10:31:35;;;;;;;;;;;;;;;16.65;40.65;100713.09;5033886;28;1457;-57
2022/05/31 10:34:05;;;;;;;;;;;;;;;16.65;41.29;100718.59;5068835;28;1391;-58
2022/05/31 10:36:32;;;;;;;;;;;;;;;16.71;41.57;100705.69;5071004;28;1172;-57
2022/05/31 10:39:06;;;;;;;;;;;;;;;16.75;40.97;100702.09;5050975;28;1372;-58
2022/05/31 10:41:32;;;;;;;;;;;;;;;16.84;41.54;100707.84;5073140;28;1267;-56
2022/05/31 10:43:59;;;;;;;;;;;;;;;16.71;41.71;100705.69;5057635;28;1485;-61
2022/05/31 10:46:26;;;;;;;;;;;;;;;16.73;41.49;100703.47;5045928;28;1886;-60
2022/05/31 10:48:55;;;;;;;;;;;;;;;16.72;41.54;100702.66;5056023;28;744;-60
2022/05/31 10:51:38;;;;;;;;;;;;;;;16.76;41.10;100698.28;5062786;28;1178;-58
2022/05/31 10:54:03;;;;;;;;;;;;;;;16.72;40.79;100696.38;5064471;28;1312;-58
2022/05/31 10:56:29;;;;;;;;;;;;;;;16.71;40.89;100701.00;5063805;28;1375;-57
2022/05/31 10:58:58;;;;;;;;;;;;;;;16.74;41.22;100697.72;5067451;28;1406;-58
2022/05/31 11:01:23;;;;;;;;;;;;;;;16.75;40.80;100701.28;5045630;28;1434;-58
2022/05/31 11:04:05;;;;;;;;;;;;;;;16.72;40.95;100696.38;5062006;28;1367;-61
2022/05/31 11:06:36;;;;;;;;;;;;;;;16.69;41.68;100699.63;5068441;28;1984;-60
2022/05/31 11:12:08;;;;;;;;;;;;;;;16.70;41.65;100699.34;5073035;28;798;-60
2022/05/31 11:14:39;;;;;;;;;;;;;;;16.74;41.36;100699.63;5075131;28;1020;-58
2022/05/31 11:17:17;;;;;;;;;;;;;;;16.69;41.33;100708.72;5064027;28;1012;-59
2022/05/31 11:20:02;;;;;;;;;;;;;;;16.73;41.16;100706.22;5064060;28;1280;-59
2022/05/31 11:22:27;;;;;;;;;;;;;;;16.80;41.06;100700.47;5062612;28;1355;-60
2022/05/31 11:24:52;;;;;;;;;;;;;;;16.75;40.86;100684.81;5061207;28;1514;-60
2022/05/31 11:27:36;;;;;;;;;;;;;;;16.65;41.17;100687.56;5068776;28;1913;-59
2022/05/31 11:30:07;;;;;;;;;;;;;;;16.71;40.88;100687.28;5067287;28;1175;-59
2022/05/31 11:32:42;;;;;;;;;;;;;;;16.69;41.13;100685.91;5064005;28;1118;-60
2022/05/31 11:35:26;;;;;;;;;;;;;;;16.75;41.07;100693.06;5056084;28;1351;-60
2022/05/31 11:37:56;;;;;;;;;;;;;;;16.82;41.40;100668.06;5069727;28;1137;-60
2022/05/31 11:40:24;;;;;;;;;;;;;;;16.89;41.13;100646.66;5065791;28;1469;-59
2022/05/31 11:43:09;;;;;;;;;;;;;;;16.91;41.33;100666.41;5062525;28;927;-60
2022/05/31 11:45:37;;;;;;;;;;;;;;;16.82;41.07;100662.56;5060966;28;1906;-59
2022/05/31 11:48:15;;;;;;;;;;;;;;;16.84;40.95;100658.41;5062687;28;1393;-60
2022/05/31 11:50:49;;;;;;;;;;;;;;;16.76;40.99;100675.50;5059242;28;838;-60
2022/05/31 11:53:18;;;;;;;;;;;;;;;16.79;40.71;100668.59;5041074;28;832;-59
2022/05/31 11:55:47;;;;;;;;;;;;;;;16.79;40.85;100668.59;5070446;28;860;-59
2022/05/31 11:58:18;;;;;;;;;;;;;;;16.75;40.62;100652.69;5078448;28;1381;-62
2022/05/31 12:00:47;;;;;;;;;;;;;;;16.73;40.80;100652.16;5063428;28;1019;-59
2022/05/31 12:03:23;;;;;;;;;;;;;;;16.77;40.71;100645.00;5078581;28;822;-63
2022/05/31 12:05:54;;;;;;;;;;;;;;;16.76;40.68;100651.59;5047728;28;1902;-60
2022/05/31 12:08:30;;;;;;;;;;;;;;;16.75;40.76;100652.69;5052274;28;1084;-61
2022/05/31 12:10:59;;;;;;;;;;;;;;;16.77;40.58;100646.91;5060035;28;787;-59
2022/05/31 12:13:25;;;;;;;;;;;;;;;16.71;40.61;100646.09;5078335;28;835;-60
2022/05/31 12:15:51;;;;;;;;;;;;;;;16.91;42.08;100649.94;5071606;28;1246;-60
2022/05/31 12:18:25;;;;;;;;;;;;;;;16.98;43.02;100650.44;5040406;28;847;-59
2022/05/31 12:20:53;;;;;;;;;;;;;;;16.87;42.02;100643.31;5065483;28;829;-61
2022/05/31 12:23:19;;;;;;;;;;;;;;;16.86;41.63;100637.00;5067416;28;1270;-60
2022/05/31 12:25:47;;;;;;;;;;;;;;;16.85;41.33;100640.03;5058385;28;1898;-60
2022/05/31 12:28:23;;;;;;;;;;;;;;;16.87;41.37;100640.56;5060439;28;989;-58
2022/05/31 12:31:06;;;;;;;;;;;;;;;16.78;41.35;100637.56;5052702;28;1231;-61
2022/05/31 12:33:46;;;;;;;;;;;;;;;16.73;41.37;100638.41;5064857;28;1056;-61
2022/05/31 12:36:13;;;;;;;;;;;;;;;16.85;40.98;100634.53;5053391;28;1186;-60
2022/05/31 12:38:54;;;;;;;;;;;;;;;16.83;40.89;100642.22;5056337;28;1207;-62
2022/05/31 12:41:32;;;;;;;;;;;;;;;16.76;40.61;100642.53;5077014;28;843;-59
2022/05/31 12:43:57;;;;;;;;;;;;;;;16.76;40.87;100632.38;5076016;28;1031;-59
2022/05/31 12:46:29;;;;;;;;;;;;;;;16.79;40.44;100627.41;5065982;28;1976;-59
2022/05/31 12:48:58;;;;;;;;;;;;;;;16.75;40.49;100641.69;5068685;28;1261;-61
2022/05/31 12:51:24;;;;;;;;;;;;;;;16.74;40.61;100631.81;5058377;28;970;-61
2022/05/31 12:53:50;;;;;;;;;;;;;;;16.78;40.51;100623.84;5070001;28;1079;-59
2022/05/31 12:56:48;;;;;;;;;;;;;;;16.74;40.66;100620.81;5059918;28;1206;-60
2022/05/31 12:59:13;;;;;;;;;;;;;;;16.75;40.47;100619.72;5027996;28;1380;-57
2022/05/31 13:01:42;;;;;;;;;;;;;;;16.76;40.67;100626.88;5048396;28;1274;-59
2022/05/31 13:04:25;;;;;;;;;;;;;;;16.73;40.42;100621.94;5074640;28;1218;-59
2022/05/31 13:06:58;;;;;;;;;;;;;;;16.74;41.25;100633.75;5076400;28;1959;-60
2022/05/31 13:09:23;;;;;;;;;;;;;;;16.75;41.57;100622.47;5076671;28;803;-59
2022/05/31 13:20:31;;;;;;;;;;;;;;;16.69;40.91;100626.34;5070357;28;944;-60
2022/05/31 13:22:59;;;;;;;;;;;;;;;16.72;40.57;100620.28;5067026;28;1207;-59
2022/05/31 13:25:40;;;;;;;;;;;;;;;16.63;40.49;100621.13;5043575;28;1918;-59
2022/05/31 13:28:05;;;;;;;;;;;;;;;16.60;40.61;100611.53;5038979;28;1088;-59
2022/05/31 13:30:32;;;;;;;;;;;;;;;16.63;40.51;100608.22;5059768;28;875;-60
2022/05/31 13:32:58;;;;;;;;;;;;;;;16.65;40.38;100611.53;5061179;28;760;-59
2022/05/31 13:35:26;;;;;;;;;;;;;;;16.60;40.61;100617.03;5057767;28;805;-59
2022/05/31 13:37:56;;;;;;;;;;;;;;;16.55;40.34;100614.28;5071279;28;1222;-59
2022/05/31 13:40:23;;;;;;;;;;;;;;;16.58;40.31;100619.25;5076292;28;793;-59
2022/05/31 13:42:48;;;;;;;;;;;;;;;16.55;40.56;100608.78;5057613;28;994;-59
2022/05/31 13:45:17;;;;;;;;;;;;;;;16.53;40.63;100611.00;5056288;28;1983;-59
2022/05/31 13:47:46;;;;;;;;;;;;;;;16.55;40.38;100617.03;5065831;28;953;-59